Time;durP1;ratioP1;P1;durP2;ratioP2;P2;SDS_P1;SDS_P2;PMS_P1;PMS_P2;Temp;Humidity;BMP_temperature;BMP_pressure;BME280_temperature;BME280_humidity;BME280_pressure;Samples;Min_cycle;Max_cycle;Signal;HPM_P1;HPM_P2
2023/12/27 00:00:58;;;;;;;6.83;4.70;;;;;;;11.88;59.88;94921.22;5052853;28;20191;-69
2023/12/27 00:03:24;;;;;;;5.50;4.17;;;;;;;11.90;59.93;94918.50;5038902;28;20195;-69
2023/12/27 00:05:51;;;;;;;8.70;4.60;;;;;;;11.76;60.03;94899.25;5032877;28;20235;-69
2023/12/27 00:08:18;;;;;;;8.10;4.37;;;;;;;11.92;59.97;94921.75;5032895;28;20286;-69
2023/12/27 00:10:46;;;;;;;5.37;4.17;;;;;;;11.94;59.79;94924.97;5032941;28;20184;-68
2023/12/27 00:13:13;;;;;;;6.57;4.40;;;;;;;11.94;59.85;94917.28;5032463;28;20596;-68
2023/12/27 00:15:44;;;;;;;13.37;4.80;;;;;;;11.98;59.95;94932.25;5032795;28;20183;-69
2023/12/27 00:18:11;;;;;;;5.87;4.10;;;;;;;11.99;59.87;94936.41;5046808;28;20238;-68
2023/12/27 00:20:38;;;;;;;4.97;3.57;;;;;;;12.03;60.05;94936.94;5052926;28;20184;-70
2023/12/27 00:23:05;;;;;;;7.47;4.57;;;;;;;12.04;59.87;94947.06;5052459;28;20194;-67
2023/12/27 00:25:32;;;;;;;6.87;4.23;;;;;;;12.05;60.03;94948.69;5052386;28;20238;-68
2023/12/27 00:28:00;;;;;;;8.40;4.60;;;;;;;11.90;60.06;94929.56;5043969;28;20234;-68
2023/12/27 00:30:27;;;;;;;5.40;3.90;;;;;;;11.96;59.97;94941.00;5032541;28;20206;-68
2023/12/27 00:32:54;;;;;;;5.33;3.90;;;;;;;12.09;60.12;94956.06;5045120;28;20676;-67
2023/12/27 00:35:20;;;;;;;7.63;4.30;;;;;;;12.10;60.08;94962.84;5052522;28;20578;-66
2023/12/27 00:37:47;;;;;;;6.27;3.90;;;;;;;11.85;59.99;94916.38;5052200;28;20236;-67
2023/12/27 00:40:14;;;;;;;10.27;4.37;;;;;;;12.07;60.04;94952.84;5050011;28;20799;-66
2023/12/27 00:42:42;;;;;;;6.27;3.70;;;;;;;12.12;60.07;94961.75;5032225;28;20580;-67
2023/12/27 00:45:11;;;;;;;8.87;4.73;;;;;;;12.13;59.99;94968.47;5032423;28;20187;-68
2023/12/27 00:47:38;;;;;;;8.00;3.93;;;;;;;12.15;60.12;94963.22;5045269;28;20248;-68
2023/12/27 00:50:06;;;;;;;8.23;4.20;;;;;;;12.15;60.35;94968.34;5052069;28;20187;-69
2023/12/27 00:52:33;;;;;;;6.73;4.07;;;;;;;12.15;60.30;94971.72;5051859;28;20623;-69
2023/12/27 00:55:00;;;;;;;6.77;3.53;;;;;;;11.99;60.32;94945.88;5051777;28;20179;-68
2023/12/27 00:57:26;;;;;;;6.00;3.57;;;;;;;12.14;60.45;94977.00;5052048;28;20195;-71
2023/12/27 00:59:53;;;;;;;5.50;3.70;;;;;;;11.98;60.11;94950.19;5051722;28;20194;-69
2023/12/27 01:02:21;;;;;;;7.23;3.77;;;;;;;12.17;60.23;94992.09;5051469;28;20590;-70
2023/12/27 01:04:49;;;;;;;6.67;3.80;;;;;;;12.17;60.54;94994.66;5050784;28;20199;-68
2023/12/27 01:07:16;;;;;;;5.23;3.73;;;;;;;12.17;60.29;94995.44;5051464;28;20232;-68
2023/12/27 01:09:42;;;;;;;5.60;4.10;;;;;;;12.15;60.36;94994.00;5051624;28;20213;-69
2023/12/27 01:12:10;;;;;;;4.97;3.53;;;;;;;12.13;60.29;94990.75;5051073;28;20194;-70
2023/12/27 01:14:37;;;;;;;4.47;3.73;;;;;;;12.06;60.63;94990.50;5051542;28;20644;-69
2023/12/27 01:17:04;;;;;;;6.97;4.37;;;;;;;12.08;60.67;95005.75;5051247;28;20188;-69
2023/12/27 01:19:32;;;;;;;5.00;4.30;;;;;;;12.07;60.49;94996.44;5034423;28;20226;-69
2023/12/27 01:21:59;;;;;;;5.93;4.23;;;;;;;12.05;60.74;94992.25;5031513;28;20206;-69
2023/12/27 01:24:26;;;;;;;8.20;4.53;;;;;;;11.99;60.90;94987.69;5031274;28;20834;-69
2023/12/27 01:26:52;;;;;;;7.33;4.07;;;;;;;12.02;60.81;95001.97;5031373;28;20738;-68
2023/12/27 01:29:19;;;;;;;7.87;4.10;;;;;;;11.81;60.70;94963.69;5031475;28;20188;-68
2023/12/27 01:31:46;;;;;;;7.67;4.30;;;;;;;11.99;60.90;94997.13;5043514;28;20187;-68
2023/12/27 01:34:13;;;;;;;6.00;3.57;;;;;;;11.91;60.82;94986.75;5034569;28;20568;-68
2023/12/27 01:36:41;;;;;;;6.50;3.97;;;;;;;11.96;60.89;94987.97;5031146;28;20203;-69
2023/12/27 01:39:08;;;;;;;7.17;3.87;;;;;;;11.95;61.07;94994.03;5031345;28;20190;-68
2023/12/27 01:41:35;;;;;;;5.20;3.73;;;;;;;11.96;60.81;95003.34;5031293;28;20215;-69
2023/12/27 01:44:01;;;;;;;6.57;4.10;;;;;;;11.97;61.13;94993.91;5031118;28;20192;-69
2023/12/27 01:46:29;;;;;;;6.83;4.63;;;;;;;11.92;61.03;94976.38;5047462;28;20210;-69
2023/12/27 01:48:55;;;;;;;7.47;4.20;;;;;;;11.99;61.07;95003.06;5054389;28;20197;-69
2023/12/27 01:51:22;;;;;;;5.37;4.13;;;;;;;12.00;61.00;95007.25;5062723;28;20190;-67
2023/12/27 01:53:51;;;;;;;6.50;3.77;;;;;;;12.01;61.02;95010.63;5049070;28;20195;-68
2023/12/27 01:56:18;;;;;;;5.60;3.67;;;;;;;12.03;61.10;95021.53;5050956;28;20198;-69
2023/12/27 01:58:45;;;;;;;5.00;3.73;;;;;;;12.05;61.13;95022.22;5050508;28;20191;-68
2023/12/27 02:01:12;;;;;;;6.57;4.23;;;;;;;12.06;60.91;95023.84;5033499;28;20191;-68
2023/12/27 02:03:39;;;;;;;4.53;4.00;;;;;;;12.07;61.03;95009.25;5033497;28;20200;-68
2023/12/27 02:06:06;;;;;;;7.53;4.13;;;;;;;12.05;61.14;94994.03;5043583;28;20199;-67
2023/12/27 02:08:33;;;;;;;7.00;3.93;;;;;;;12.11;61.35;95018.28;5049991;28;20191;-68
2023/12/27 02:11:01;;;;;;;5.50;3.37;;;;;;;12.11;61.24;95026.78;5050623;28;20183;-69
2023/12/27 02:13:28;;;;;;;6.03;3.87;;;;;;;11.90;61.13;94990.28;5050254;28;20227;-70
2023/12/27 02:15:56;;;;;;;8.73;3.63;;;;;;;12.13;61.09;95024.88;5043165;28;20203;-68
2023/12/27 02:18:23;;;;;;;6.70;3.77;;;;;;;12.14;61.33;95018.81;5035477;28;20295;-70
2023/12/27 02:20:51;;;;;;;5.03;3.50;;;;;;;12.15;61.40;95017.88;5050340;28;20198;-69
2023/12/27 02:23:21;;;;;;;8.07;3.33;;;;;;;11.96;61.26;94992.28;5049668;28;20198;-68
2023/12/27 02:25:51;;;;;;;6.77;3.37;;;;;;;12.17;61.38;95015.97;5048520;28;20715;-68
2023/12/27 02:28:18;;;;;;;7.10;3.90;;;;;;;12.18;61.46;95009.91;5030501;28;20204;-69
2023/12/27 02:30:45;;;;;;;8.00;3.83;;;;;;;11.66;61.35;94926.66;5030322;28;20249;-69
2023/12/27 02:33:12;;;;;;;5.17;3.83;;;;;;;12.17;61.78;95004.91;5029839;28;20179;-68
2023/12/27 02:35:38;;;;;;;8.00;4.20;;;;;;;11.72;61.63;94942.28;5031628;28;20202;-68
2023/12/27 02:38:05;;;;;;;6.17;3.30;;;;;;;12.15;61.64;94996.56;5041347;28;20194;-67
2023/12/27 02:40:32;;;;;;;6.73;3.67;;;;;;;12.26;61.54;95012.59;5049686;28;20735;-69
2023/12/27 02:43:00;;;;;;;6.07;3.43;;;;;;;12.28;61.43;95007.31;5050042;28;20668;-67
2023/12/27 02:45:27;;;;;;;5.73;3.93;;;;;;;12.29;61.71;95026.88;5049452;28;20194;-69
2023/12/27 02:47:54;;;;;;;6.77;3.60;;;;;;;12.26;61.87;95016.88;5045014;28;20306;-67
2023/12/27 02:50:20;;;;;;;3.90;3.40;;;;;;;12.30;61.86;95025.91;5029523;28;20195;-68
2023/12/27 02:52:47;;;;;;;4.53;3.43;;;;;;;12.30;61.94;95036.16;5029810;28;20261;-69
2023/12/27 02:55:14;;;;;;;8.97;3.80;;;;;;;12.30;61.47;95034.44;5029784;28;20203;-70
2023/12/27 02:57:41;;;;;;;7.17;3.57;;;;;;;12.31;61.86;95037.81;5031116;28;20195;-68
2023/12/27 03:00:10;;;;;;;4.47;3.40;;;;;;;12.30;61.90;95036.16;5044981;28;20225;-67
2023/12/27 03:02:37;;;;;;;7.23;3.47;;;;;;;12.29;61.84;95037.94;5035555;28;20188;-68
2023/12/27 03:05:04;;;;;;;7.00;3.13;;;;;;;12.29;61.88;95040.50;5036749;28;20199;-67
2023/12/27 03:07:30;;;;;;;7.03;3.77;;;;;;;12.19;61.91;95041.47;5029413;28;20692;-72
2023/12/27 03:09:57;;;;;;;7.63;3.37;;;;;;;12.28;61.95;95056.84;5029502;28;20207;-67
2023/12/27 03:12:23;;;;;;;7.87;3.77;;;;;;;12.28;62.08;95058.59;5029585;28;20199;-68
2023/12/27 03:14:51;;;;;;;6.53;3.37;;;;;;;12.27;62.03;95060.34;5030929;28;20193;-68
2023/12/27 03:17:19;;;;;;;5.93;3.73;;;;;;;12.07;62.17;95028.00;5047553;28;20203;-67
2023/12/27 03:19:46;;;;;;;4.83;3.50;;;;;;;12.26;62.14;95047.66;5049193;28;20238;-68
2023/12/27 03:22:12;;;;;;;6.33;3.60;;;;;;;12.26;62.08;95057.91;5048437;28;20241;-68
2023/12/27 03:24:39;;;;;;;8.33;3.80;;;;;;;12.15;62.29;95050.41;5038700;28;20188;-68
2023/12/27 03:27:06;;;;;;;7.63;3.83;;;;;;;12.26;62.33;95079.25;5029052;28;20289;-68
2023/12/27 03:29:33;;;;;;;5.57;3.30;;;;;;;12.26;62.18;95076.69;5029584;28;20187;-68
2023/12/27 03:31:59;;;;;;;7.63;4.10;;;;;;;12.27;62.30;95078.31;5029329;28;20203;-68
2023/12/27 03:34:28;;;;;;;5.13;3.63;;;;;;;12.23;62.40;95065.91;5031905;28;20249;-69
2023/12/27 03:36:54;;;;;;;4.57;3.70;;;;;;;12.20;62.37;95056.72;5049110;28;20241;-70
2023/12/27 03:39:21;;;;;;;3.63;3.07;;;;;;;12.26;62.40;95081.81;5049828;28;20187;-68
2023/12/27 03:41:48;;;;;;;9.23;3.77;;;;;;;12.26;62.53;95078.41;5049528;28;20199;-70
2023/12/27 03:44:14;;;;;;;4.37;3.60;;;;;;;12.25;62.63;95077.63;5047859;28;20245;-69
2023/12/27 03:46:42;;;;;;;5.37;3.70;;;;;;;12.23;62.48;95089.78;5049300;28;20726;-69
2023/12/27 03:49:08;;;;;;;5.17;4.00;;;;;;;12.23;62.71;95092.34;5047652;28;20678;-68
2023/12/27 03:51:36;;;;;;;4.33;3.67;;;;;;;12.23;62.63;95091.53;5049014;28;20199;-70
2023/12/27 03:54:03;;;;;;;4.77;3.47;;;;;;;12.16;62.58;95069.94;5048865;28;20195;-67
2023/12/27 03:56:30;;;;;;;6.67;3.63;;;;;;;12.20;62.75;95079.00;5049070;28;20191;-68
2023/12/27 03:58:57;;;;;;;5.90;3.20;;;;;;;12.20;62.97;95084.13;5041352;28;20198;-68
2023/12/27 04:01:24;;;;;;;7.97;4.17;;;;;;;12.19;62.95;95093.56;5029337;28;20192;-68
2023/12/27 04:03:50;;;;;;;6.10;3.70;;;;;;;12.19;62.90;95090.19;5029224;28;20211;-68
2023/12/27 04:06:18;;;;;;;6.23;3.60;;;;;;;11.66;62.83;95013.75;5029648;28;20214;-68
2023/12/27 04:08:46;;;;;;;6.37;3.83;;;;;;;11.94;63.03;95055.69;5030413;28;20195;-70
2023/12/27 04:11:13;;;;;;;4.07;3.30;;;;;;;12.18;63.03;95097.09;5029581;28;20610;-68
2023/12/27 04:13:40;;;;;;;6.30;3.23;;;;;;;11.99;63.10;95071.47;5037535;28;20396;-69
2023/12/27 04:16:07;;;;;;;6.33;3.57;;;;;;;12.04;63.09;95088.03;5049121;28;20195;-66
2023/12/27 04:18:34;;;;;;;4.90;3.53;;;;;;;12.19;63.02;95108.94;5048860;28;20230;-69
2023/12/27 04:21:01;;;;;;;6.37;3.43;;;;;;;12.20;63.16;95113.13;5048800;28;20191;-65
2023/12/27 04:23:27;;;;;;;6.20;3.70;;;;;;;12.06;63.16;95085.34;5050414;28;20948;-69
2023/12/27 04:25:55;;;;;;;6.77;4.20;;;;;;;12.14;63.11;95105.19;5052637;28;20702;-67
2023/12/27 04:28:22;;;;;;;7.77;3.83;;;;;;;11.92;63.23;95068.66;5053020;28;20218;-67
2023/12/27 04:30:49;;;;;;;5.57;3.47;;;;;;;12.20;63.20;95110.56;5053831;28;20544;-69
2023/12/27 04:33:16;;;;;;;5.73;3.53;;;;;;;12.14;63.40;95110.31;5066932;28;20202;-68
2023/12/27 04:35:43;;;;;;;4.80;3.37;;;;;;;12.21;63.36;95119.06;5056028;28;20191;-68
2023/12/27 04:38:13;;;;;;;7.00;3.57;;;;;;;12.10;63.36;95108.97;5052349;28;20203;-68
2023/12/27 04:40:40;;;;;;;7.30;3.57;;;;;;;12.00;63.26;95080.75;5052368;28;20187;-70
2023/12/27 04:43:08;;;;;;;8.87;3.70;;;;;;;12.22;63.54;95118.13;5052256;28;20194;-70
2023/12/27 04:45:35;;;;;;;4.50;3.47;;;;;;;12.22;63.47;95118.94;5052034;28;20191;-67
2023/12/27 04:48:02;;;;;;;7.23;3.70;;;;;;;12.18;63.59;95114.22;5052087;28;20226;-68
2023/12/27 04:50:29;;;;;;;7.70;3.90;;;;;;;12.19;63.56;95114.06;5037007;28;20829;-68
2023/12/27 04:52:55;;;;;;;4.97;3.60;;;;;;;12.16;63.57;95109.22;5032412;28;20214;-68
2023/12/27 04:55:22;;;;;;;6.93;4.17;;;;;;;12.22;63.66;95120.69;5030592;28;20221;-70
2023/12/27 04:57:49;;;;;;;5.30;3.50;;;;;;;11.98;63.62;95098.84;5032398;28;20191;-69
2023/12/27 05:00:18;;;;;;;6.83;3.93;;;;;;;12.22;63.57;95125.81;5032520;28;20237;-69
2023/12/27 05:02:44;;;;;;;6.70;3.60;;;;;;;12.20;63.79;95128.50;5031676;28;20541;-71
2023/12/27 05:05:11;;;;;;;5.20;3.77;;;;;;;12.19;63.83;95126.91;5045743;28;20194;-68
2023/12/27 05:07:38;;;;;;;6.03;4.10;;;;;;;12.20;63.72;95141.31;5031544;28;20224;-70
2023/12/27 05:10:05;;;;;;;6.97;3.77;;;;;;;12.20;63.77;95140.53;5032012;28;20285;-67
2023/12/27 05:12:32;;;;;;;7.80;3.83;;;;;;;12.15;63.87;95138.38;5031502;28;20203;-67
2023/12/27 05:14:58;;;;;;;6.73;3.80;;;;;;;12.18;64.08;95137.31;5032167;28;20188;-69
2023/12/27 05:17:26;;;;;;;6.03;3.90;;;;;;;12.17;63.82;95136.47;5031314;28;20188;-69
2023/12/27 05:19:53;;;;;;;7.03;3.33;;;;;;;12.11;64.12;95131.91;5045800;28;20296;-68
2023/12/27 05:22:21;;;;;;;5.57;3.40;;;;;;;12.14;64.08;95147.00;5050203;28;20194;-68
2023/12/27 05:24:47;;;;;;;4.53;3.93;;;;;;;12.14;64.13;95151.34;5051587;28;20202;-70
2023/12/27 05:27:14;;;;;;;5.00;3.67;;;;;;;11.79;63.99;95103.97;5051070;28;20218;-68
2023/12/27 05:29:41;;;;;;;5.60;3.30;;;;;;;12.12;64.24;95158.34;5051486;28;20248;-68
2023/12/27 05:32:08;;;;;;;6.03;3.30;;;;;;;12.09;64.21;95163.72;5050010;28;20194;-67
2023/12/27 05:34:36;;;;;;;5.97;3.30;;;;;;;12.07;64.29;95166.44;5036573;28;20183;-67
2023/12/27 05:37:03;;;;;;;6.13;3.60;;;;;;;12.00;64.48;95158.50;5030046;28;20223;-68
2023/12/27 05:39:29;;;;;;;5.30;3.53;;;;;;;12.09;64.47;95179.94;5031131;28;20195;-68
2023/12/27 05:41:56;;;;;;;4.90;4.00;;;;;;;12.08;64.48;95185.19;5031386;28;20593;-67
2023/12/27 05:44:23;;;;;;;5.57;3.60;;;;;;;12.07;64.51;95186.13;5030923;28;20191;-68
2023/12/27 05:46:50;;;;;;;7.83;3.73;;;;;;;11.92;64.40;95166.03;5031314;28;20195;-67
2023/12/27 05:49:15;;;;;;;8.23;4.07;;;;;;;12.01;64.55;95184.94;5029560;28;21032;-69
2023/12/27 05:51:44;;;;;;;4.27;3.73;;;;;;;12.03;64.69;95204.34;5048516;28;20229;-67
2023/12/27 05:54:13;;;;;;;5.77;3.70;;;;;;;11.79;64.70;95176.50;5050648;28;20187;-68
2023/12/27 05:56:40;;;;;;;5.80;3.60;;;;;;;12.01;64.77;95213.13;5050958;28;20237;-70
2023/12/27 05:59:07;;;;;;;8.20;4.10;;;;;;;11.91;64.71;95202.84;5034829;28;20200;-68
2023/12/27 06:01:34;;;;;;;5.93;3.37;;;;;;;11.97;64.86;95212.56;5031020;28;20752;-68
2023/12/27 06:04:03;;;;;;;6.40;3.30;;;;;;;11.87;64.66;95201.50;5030643;28;20238;-71
2023/12/27 06:06:31;;;;;;;7.40;4.13;;;;;;;12.03;64.72;95234.28;5030799;28;20672;-71
2023/12/27 06:08:59;;;;;;;7.90;3.87;;;;;;;12.03;64.85;95229.16;5030910;28;20239;-70
2023/12/27 06:11:28;;;;;;;7.73;3.67;;;;;;;12.04;64.92;95226.47;5048262;28;20199;-68
2023/12/27 06:13:55;;;;;;;7.83;3.57;;;;;;;12.03;64.66;95224.03;5034767;28;20199;-69
2023/12/27 06:16:21;;;;;;;4.37;3.30;;;;;;;11.84;64.99;95200.97;5030965;28;20185;-70
2023/12/27 06:18:48;;;;;;;6.47;3.77;;;;;;;11.89;64.73;95214.19;5030328;28;20227;-71
2023/12/27 06:21:15;;;;;;;7.97;4.17;;;;;;;12.12;64.79;95243.75;5030439;28;20196;-68
2023/12/27 06:23:42;;;;;;;5.50;3.57;;;;;;;12.15;64.87;95240.13;5030584;28;20199;-70
2023/12/27 06:26:10;;;;;;;5.37;3.80;;;;;;;12.20;64.73;95245.66;5030293;28;20214;-69
2023/12/27 06:28:36;;;;;;;5.37;3.97;;;;;;;12.35;64.41;95240.91;5045944;28;20211;-68
2023/12/27 06:31:03;;;;;;;4.93;3.53;;;;;;;12.58;64.23;95236.34;5031952;28;20199;-67
2023/12/27 06:33:31;;;;;;;4.70;3.20;;;;;;;12.81;65.92;95217.13;5031518;28;20225;-68
2023/12/27 06:35:58;;;;;;;5.10;3.10;;;;;;;13.11;73.14;95190.41;5049429;28;20201;-71
2023/12/27 06:38:24;;;;;;;5.00;2.93;;;;;;;13.86;79.00;95228.91;5029933;28;20584;-70
2023/12/27 06:40:51;;;;;;;5.63;3.23;;;;;;;14.43;81.51;95232.03;5038026;28;20627;-72
2023/12/27 06:43:19;;;;;;;3.43;2.77;;;;;;;15.01;80.93;95236.69;5039015;28;20199;-72
2023/12/27 06:45:46;;;;;;;5.13;3.40;;;;;;;15.55;78.91;95242.47;5041250;28;20282;-71
2023/12/27 06:48:13;;;;;;;4.63;3.23;;;;;;;16.04;76.62;95240.06;5038592;28;20230;-71
2023/12/27 06:50:39;;;;;;;7.23;4.00;;;;;;;16.53;73.34;95247.88;5032748;28;20199;-71
2023/12/27 06:53:06;;;;;;;4.83;3.60;;;;;;;16.81;70.73;95235.50;5030659;28;20295;-73
2023/12/27 06:55:33;;;;;;;4.50;3.33;;;;;;;17.50;70.95;95264.28;5035353;28;20179;-72
2023/12/27 06:58:00;;;;;;;4.73;3.20;;;;;;;18.00;69.78;95265.72;5035429;28;20652;-72
2023/12/27 07:00:29;;;;;;;5.27;3.27;;;;;;;18.17;68.74;95231.03;5030295;28;20215;-71
2023/12/27 07:02:55;;;;;;;5.80;3.90;;;;;;;19.01;67.78;95294.09;5049207;28;20563;-71
2023/12/27 07:05:22;;;;;;;6.67;3.07;;;;;;;19.41;66.52;95281.72;5049667;28;20202;-70
2023/12/27 07:07:49;;;;;;;4.77;2.80;;;;;;;19.95;65.50;95291.88;5049140;28;20227;-72
2023/12/27 07:10:16;;;;;;;6.43;3.20;;;;;;;20.39;64.13;95306.59;5044147;28;20180;-70
2023/12/27 07:12:43;;;;;;;8.02;3.40;;;;;;;20.81;62.95;95318.03;5039986;28;20183;-70
2023/12/27 07:15:11;;;;;;;5.45;3.50;;;;;;;21.13;62.92;95308.91;5054147;28;20229;-72
2023/12/27 07:17:39;;;;;;;13.52;4.18;;;;;;;21.66;62.20;95337.94;5038774;28;20211;-72
2023/12/27 07:20:07;;;;;;;17.92;4.20;;;;;;;21.98;61.35;95328.75;5034962;28;20744;-77
2023/12/27 07:22:33;;;;;;;6.20;3.28;;;;;;;22.40;60.39;95332.16;5047141;28;20277;-75
2023/12/27 07:25:00;;;;;;;8.63;3.60;;;;;;;22.53;59.06;95311.31;5048013;28;20198;-77
2023/12/27 07:27:27;;;;;;;5.68;3.63;;;;;;;22.84;58.37;95330.88;5031339;28;20211;-71
2023/12/27 07:29:54;;;;;;;14.18;3.90;;;;;;;23.22;57.19;95354.63;5027940;28;20199;-77
2023/12/27 07:32:20;;;;;;;11.15;3.42;;;;;;;23.40;56.73;95356.66;5034595;28;20194;-75
2023/12/27 07:34:48;;;;;;;9.68;4.50;;;;;;;23.51;55.56;95339.56;5026660;28;20426;-68
2023/12/27 07:37:15;;;;;;;9.40;4.55;;;;;;;23.82;54.44;95361.66;5030159;28;20198;-69
2023/12/27 07:39:42;;;;;;;12.38;3.88;;;;;;;23.96;53.76;95351.00;5044267;28;20191;-65
2023/12/27 07:42:09;;;;;;;8.80;3.85;;;;;;;24.11;52.46;95355.19;5045236;28;20183;-70
2023/12/27 07:44:36;;;;;;;5.45;3.80;;;;;;;24.16;51.61;95353.53;5046105;28;20262;-65
2023/12/27 07:47:04;;;;;;;5.80;3.85;;;;;;;24.12;51.13;95344.50;5047023;28;20194;-67
2023/12/27 07:49:30;;;;;;;8.45;4.10;;;;;;;23.81;50.77;95313.03;5044784;28;20234;-64
2023/12/27 07:51:59;;;;;;;8.85;4.38;;;;;;;23.89;50.90;95350.19;5032353;28;20200;-66
2023/12/27 07:54:26;;;;;;;9.32;5.10;;;;;;;23.60;51.15;95311.44;5026608;28;20445;-68
2023/12/27 07:56:53;;;;;;;7.40;4.18;;;;;;;23.64;51.06;95330.91;5027033;28;20524;-70
2023/12/27 07:59:20;;;;;;;7.68;4.13;;;;;;;23.69;51.08;95371.13;5032274;28;20735;-67
2023/12/27 08:01:47;;;;;;;5.53;4.30;;;;;;;23.57;51.29;95361.44;5031371;28;20453;-69
2023/12/27 08:04:14;;;;;;;8.57;5.45;;;;;;;23.57;50.96;95364.84;5030308;28;20198;-70
2023/12/27 08:06:41;;;;;;;10.57;5.90;;;;;;;23.39;51.05;95328.91;5035677;28;20203;-68
2023/12/27 08:09:10;;;;;;;8.85;5.78;;;;;;;23.77;50.64;95364.88;5050079;28;20215;-72
2023/12/27 08:11:36;;;;;;;7.45;5.45;;;;;;;23.74;50.80;95368.69;5032671;28;20210;-69
2023/12/27 08:14:04;;;;;;;11.25;5.70;;;;;;;23.60;51.10;95376.72;5034548;28;20184;-69
2023/12/27 08:16:31;;;;;;;9.88;5.40;;;;;;;23.47;51.75;95380.94;5037481;28;20230;-70
2023/12/27 08:18:58;;;;;;;10.20;5.90;;;;;;;23.39;52.07;95385.56;5032386;28;20219;-70
2023/12/27 08:21:24;;;;;;;14.35;5.78;;;;;;;23.26;52.19;95386.34;5039570;28;20188;-69
2023/12/27 08:23:52;;;;;;;12.20;5.88;;;;;;;23.00;52.56;95376.69;5030011;28;20202;-67
2023/12/27 08:26:21;;;;;;;11.85;5.28;;;;;;;22.77;52.53;95377.00;5029691;28;20195;-68
2023/12/27 08:28:47;;;;;;;9.38;5.40;;;;;;;22.52;52.63;95382.72;5031675;28;20331;-69
2023/12/27 08:31:14;;;;;;;13.40;5.50;;;;;;;22.17;52.35;95362.94;5029954;28;20191;-66
2023/12/27 08:33:41;;;;;;;7.63;4.85;;;;;;;22.25;52.20;95388.81;5042234;28;20187;-68
2023/12/27 08:36:08;;;;;;;10.35;5.63;;;;;;;22.31;51.95;95395.84;5050137;28;20198;-68
2023/12/27 08:38:36;;;;;;;7.38;5.18;;;;;;;22.53;51.04;95399.16;5049723;28;20191;-65
2023/12/27 08:41:03;;;;;;;8.05;5.13;;;;;;;22.76;50.06;95404.88;5049715;28;20195;-68
2023/12/27 08:43:33;;;;;;;6.63;4.53;;;;;;;22.78;49.60;95408.09;5030979;28;20219;-67
2023/12/27 08:45:59;;;;;;;7.00;4.65;;;;;;;22.43;49.91;95416.97;5030030;28;20188;-70
2023/12/27 08:48:26;;;;;;;8.25;4.82;;;;;;;22.01;50.69;95421.31;5029563;28;20215;-69
2023/12/27 08:50:53;;;;;;;7.80;4.70;;;;;;;21.57;50.87;95409.38;5029729;28;20202;-72
2023/12/27 08:53:20;;;;;;;9.38;5.50;;;;;;;21.33;51.31;95426.22;5031047;28;20665;-67
2023/12/27 08:55:47;;;;;;;7.68;4.70;;;;;;;21.06;51.86;95425.09;5031885;28;20192;-71
2023/12/27 08:58:13;;;;;;;6.00;4.50;;;;;;;20.83;51.96;95429.66;5031700;28;20283;-64
2023/12/27 09:00:42;;;;;;;6.20;4.03;;;;;;;20.60;52.26;95429.78;5031897;28;20198;-74
2023/12/27 09:03:08;;;;;;;6.30;3.90;;;;;;;20.39;52.33;95425.28;5031873;28;20202;-71
2023/12/27 09:05:34;;;;;;;6.30;4.55;;;;;;;20.18;52.62;95423.41;5032110;28;20200;-64
2023/12/27 09:08:01;;;;;;;5.95;4.18;;;;;;;19.98;52.99;95421.31;5032297;28;20224;-69
2023/12/27 09:10:28;;;;;;;7.60;4.35;;;;;;;19.86;53.21;95435.75;5030822;28;20664;-69
2023/12/27 09:12:55;;;;;;;9.25;5.30;;;;;;;19.69;53.12;95429.91;5031786;28;20187;-68
2023/12/27 09:15:22;;;;;;;9.13;4.35;;;;;;;19.49;53.29;95413.16;5031972;28;20194;-71
2023/12/27 09:17:50;;;;;;;5.68;4.22;;;;;;;19.41;53.53;95416.63;5031852;28;20195;-70
2023/12/27 09:20:17;;;;;;;8.53;4.40;;;;;;;19.29;53.56;95415.41;5031371;28;20632;-69
2023/12/27 09:22:45;;;;;;;6.78;4.22;;;;;;;19.18;53.69;95403.69;5031211;28;20668;-70
2023/12/27 09:25:13;;;;;;;5.90;3.97;;;;;;;19.07;53.84;95405.84;5031199;28;20191;-70
2023/12/27 09:27:40;;;;;;;7.17;4.10;;;;;;;18.97;53.90;95395.72;5031795;28;20188;-73
2023/12/27 09:30:07;;;;;;;4.87;3.93;;;;;;;18.86;54.02;95394.31;5031575;28;20187;-68
2023/12/27 09:32:34;;;;;;;7.47;4.00;;;;;;;18.77;54.11;95387.56;5031489;28;20191;-72
2023/12/27 09:35:02;;;;;;;6.30;4.40;;;;;;;18.70;54.07;95387.47;5031087;28;20648;-75
2023/12/27 09:37:30;;;;;;;6.67;4.63;;;;;;;18.63;54.31;95383.09;5031491;28;20196;-74
2023/12/27 09:39:57;;;;;;;4.93;3.87;;;;;;;18.56;54.22;95375.97;5030977;28;20191;-71
2023/12/27 09:42:24;;;;;;;7.90;3.83;;;;;;;18.50;54.45;95374.09;5031541;28;20234;-73
2023/12/27 09:44:53;;;;;;;5.30;3.63;;;;;;;18.45;54.51;95363.44;5031255;28;20199;-74
2023/12/27 09:47:23;;;;;;;6.73;3.97;;;;;;;18.39;54.63;95363.28;5031145;28;20665;-75
2023/12/27 09:49:54;;;;;;;5.53;3.50;;;;;;;18.12;54.61;95323.94;5031205;28;20227;-69
2023/12/27 09:52:24;;;;;;;5.10;3.83;;;;;;;18.08;54.65;95330.41;5031558;28;20226;-71
2023/12/27 09:54:52;;;;;;;4.87;3.37;;;;;;;18.25;54.55;95373.38;5032319;28;20210;-64
2023/12/27 09:57:20;;;;;;;5.33;3.93;;;;;;;18.22;54.63;95360.78;5033541;28;20584;-67
2023/12/27 09:59:49;;;;;;;7.73;4.20;;;;;;;18.20;54.68;95364.50;5031121;28;20200;-69
2023/12/27 10:02:19;;;;;;;5.07;3.80;;;;;;;18.04;54.59;95345.47;5030846;28;20668;-66
2023/12/27 10:04:53;;;;;;;4.70;3.47;;;;;;;18.12;54.63;95354.19;5031303;28;20190;-66
2023/12/27 10:07:22;;;;;;;6.37;3.80;;;;;;;18.14;54.60;95355.66;5030421;28;20719;-73
2023/12/27 10:09:49;;;;;;;6.10;3.57;;;;;;;18.10;54.55;95362.13;5030948;28;20216;-70
2023/12/27 10:12:16;;;;;;;6.00;3.73;;;;;;;18.10;54.48;95369.91;5030553;28;20196;-73
2023/12/27 10:14:44;;;;;;;9.23;3.87;;;;;;;18.11;54.49;95370.69;5031025;28;20196;-67
2023/12/27 10:17:11;;;;;;;5.27;3.50;;;;;;;18.02;54.53;95350.00;5030740;28;20187;-68
2023/12/27 10:19:39;;;;;;;5.13;3.37;;;;;;;18.09;54.54;95370.88;5030470;28;20304;-67
2023/12/27 10:22:06;;;;;;;5.90;3.87;;;;;;;18.08;54.36;95363.25;5030126;28;20302;-65
2023/12/27 10:24:35;;;;;;;4.30;3.30;;;;;;;18.06;54.44;95363.44;5030729;28;20238;-72
2023/12/27 10:27:02;;;;;;;5.83;4.07;;;;;;;18.07;54.40;95367.63;5030385;28;20215;-66
2023/12/27 10:29:31;;;;;;;3.00;2.70;;;;;;;18.11;54.42;95358.56;5030388;28;20644;-70
2023/12/27 10:31:59;;;;;;;7.20;3.73;;;;;;;18.12;54.29;95351.59;5030080;28;20238;-65
2023/12/27 10:34:25;;;;;;;4.90;3.17;;;;;;;18.14;54.19;95334.13;5030233;28;20645;-70
2023/12/27 10:36:52;;;;;;;5.77;3.07;;;;;;;17.97;54.24;95302.31;5029658;28;20195;-70
2023/12/27 10:39:19;;;;;;;5.57;3.20;;;;;;;18.18;54.00;95330.22;5030100;28;20655;-68
2023/12/27 10:41:47;;;;;;;4.13;3.20;;;;;;;18.12;54.08;95320.53;5030303;28;20199;-67
2023/12/27 10:44:17;;;;;;;6.37;3.63;;;;;;;18.23;53.97;95327.94;5030626;28;20192;-77
2023/12/27 10:46:44;;;;;;;5.90;3.40;;;;;;;18.24;54.02;95337.31;5030187;28;20284;-71
2023/12/27 10:49:14;;;;;;;5.50;3.63;;;;;;;18.21;53.95;95322.91;5029703;28;20219;-74
2023/12/27 10:51:41;;;;;;;5.03;3.50;;;;;;;18.26;53.90;95332.75;5030567;28;20200;-68
2023/12/27 10:54:10;;;;;;;4.33;3.00;;;;;;;18.28;53.89;95333.41;5030377;28;20192;-65
2023/12/27 10:56:38;;;;;;;3.60;2.97;;;;;;;18.30;53.81;95345.19;5030251;28;20218;-65
2023/12/27 10:59:08;;;;;;;3.97;2.93;;;;;;;18.04;53.60;95296.28;5030599;28;20183;-70
2023/12/27 11:01:37;;;;;;;7.00;3.27;;;;;;;18.37;53.27;95331.59;5030094;28;20191;-66
2023/12/27 11:04:07;;;;;;;3.67;3.10;;;;;;;18.37;53.57;95327.22;5029400;28;20191;-75
2023/12/27 11:06:36;;;;;;;3.67;3.07;;;;;;;18.46;53.54;95323.59;5029782;28;20192;-66
2023/12/27 11:09:07;;;;;;;3.53;3.00;;;;;;;18.53;53.51;95336.69;5029672;28;20270;-68
2023/12/27 11:11:37;;;;;;;4.27;3.40;;;;;;;18.54;53.44;95335.69;5029858;28;20660;-67
2023/12/27 11:14:07;;;;;;;3.20;2.87;;;;;;;18.54;53.34;95343.47;5029504;28;20223;-73
2023/12/27 11:16:35;;;;;;;3.47;2.40;;;;;;;18.53;53.37;95349.63;5029345;28;20191;-70
2023/12/27 11:19:03;;;;;;;4.73;2.90;;;;;;;18.50;53.48;95348.19;5029423;28;20234;-68
2023/12/27 11:21:30;;;;;;;4.87;3.17;;;;;;;18.52;53.35;95356.59;5029819;28;20200;-70
2023/12/27 11:23:58;;;;;;;4.57;3.00;;;;;;;18.51;53.31;95344.59;5029304;28;20207;-67
2023/12/27 11:26:25;;;;;;;5.33;3.17;;;;;;;18.51;53.36;95348.97;5029551;28;20188;-74
2023/12/27 11:28:53;;;;;;;4.60;3.30;;;;;;;18.51;53.32;95346.38;5029358;28;20310;-64
2023/12/27 11:31:21;;;;;;;5.53;3.03;;;;;;;18.49;53.29;95338.00;5030007;28;20281;-66
2023/12/27 11:33:47;;;;;;;3.80;3.37;;;;;;;18.44;53.44;95333.34;5036010;28;20183;-68